sensor_id;sensor_type;location;lat;lon;timestamp;P1;durP1;ratioP1;P2;durP2;ratioP2
68375;SDS011;55318;52.068;5.188;2023-04-03T00:03:11;2.9;;;1.0;;
68375;SDS011;55318;52.068;5.188;2023-04-03T00:04:47;0.9;;;0.5;;
68375;SDS011;55318;52.068;5.188;2023-04-03T00:06:25;0.9;;;0.7;;
68375;SDS011;55318;52.068;5.188;2023-04-03T00:08:01;1.2;;;0.7;;
68375;SDS011;55318;52.068;5.188;2023-04-03T00:11:15;1.0;;;0.7;;
68375;SDS011;55318;52.068;5.188;2023-04-03T00:12:51;0.6;;;0.5;;
68375;SDS011;55318;52.068;5.188;2023-04-03T00:14:28;1.2;;;1.11;;
68375;SDS011;55318;52.068;5.188;2023-04-03T00:17:43;1.2;;;1.11;;
68375;SDS011;55318;52.068;5.188;2023-04-03T00:19:19;1.0;;;0.5;;
68375;SDS011;55318;52.068;5.188;2023-04-03T00:20:56;1.5;;;0.7;;
68375;SDS011;55318;52.068;5.188;2023-04-03T00:22:33;1.2;;;1.11;;
68375;SDS011;55318;52.068;5.188;2023-04-03T00:25:46;0.7;;;0.5;;
68375;SDS011;55318;52.068;5.188;2023-04-03T00:27:23;3.5;;;1.11;;
68375;SDS011;55318;52.068;5.188;2023-04-03T00:28:59;2.5;;;0.8;;
68375;SDS011;55318;52.068;5.188;2023-04-03T00:32:12;1.0;;;0.5;;
68375;SDS011;55318;52.068;5.188;2023-04-03T00:33:49;1.8;;;0.7;;
68375;SDS011;55318;52.068;5.188;2023-04-03T00:35:26;0.5;;;0.5;;
68375;SDS011;55318;52.068;5.188;2023-04-03T00:38:41;1.3;;;0.7;;
68375;SDS011;55318;52.068;5.188;2023-04-03T00:40:17;0.7;;;0.4;;
68375;SDS011;55318;52.068;5.188;2023-04-03T00:41:54;0.9;;;0.4;;
68375;SDS011;55318;52.068;5.188;2023-04-03T00:43:30;4.2;;;0.6;;
68375;SDS011;55318;52.068;5.188;2023-04-03T00:47:08;1.3;;;0.6;;
68375;SDS011;55318;52.068;5.188;2023-04-03T00:48:47;1.3;;;0.7;;
68375;SDS011;55318;52.068;5.188;2023-04-03T00:50:24;1.3;;;0.7;;
68375;SDS011;55318;52.068;5.188;2023-04-03T00:52:02;2.21;;;1.11;;
68375;SDS011;55318;52.068;5.188;2023-04-03T00:55:25;1.7;;;0.5;;
68375;SDS011;55318;52.068;5.188;2023-04-03T00:57:01;2.31;;;1.4;;
68375;SDS011;55318;52.068;5.188;2023-04-03T00:58:42;1.4;;;0.5;;
68375;SDS011;55318;52.068;5.188;2023-04-03T01:00:24;1.9;;;0.8;;
68375;SDS011;55318;52.068;5.188;2023-04-03T01:03:38;0.5;;;0.4;;
68375;SDS011;55318;52.068;5.188;2023-04-03T01:05:14;1.0;;;0.6;;
68375;SDS011;55318;52.068;5.188;2023-04-03T01:06:52;0.8;;;0.6;;
68375;SDS011;55318;52.068;5.188;2023-04-03T01:10:09;0.8;;;0.8;;
68375;SDS011;55318;52.068;5.188;2023-04-03T01:11:49;2.21;;;0.7;;
68375;SDS011;55318;52.068;5.188;2023-04-03T01:13:26;1.6;;;0.7;;
68375;SDS011;55318;52.068;5.188;2023-04-03T01:15:06;1.4;;;0.9;;
68375;SDS011;55318;52.068;5.188;2023-04-03T01:18:29;1.3;;;1.0;;
68375;SDS011;55318;52.068;5.188;2023-04-03T01:23:56;0.8;;;0.4;;
68375;SDS011;55318;52.068;5.188;2023-04-03T01:25:45;1.4;;;0.8;;
68375;SDS011;55318;52.068;5.188;2023-04-03T01:27:24;1.0;;;0.8;;
68375;SDS011;55318;52.068;5.188;2023-04-03T01:30:39;1.3;;;0.6;;
68375;SDS011;55318;52.068;5.188;2023-04-03T01:32:22;0.6;;;0.4;;
68375;SDS011;55318;52.068;5.188;2023-04-03T01:33:59;1.5;;;0.5;;
68375;SDS011;55318;52.068;5.188;2023-04-03T01:37:14;0.5;;;0.5;;
68375;SDS011;55318;52.068;5.188;2023-04-03T01:38:50;0.7;;;0.4;;
68375;SDS011;55318;52.068;5.188;2023-04-03T01:40:27;0.8;;;0.5;;
68375;SDS011;55318;52.068;5.188;2023-04-03T01:42:04;0.8;;;0.8;;
68375;SDS011;55318;52.068;5.188;2023-04-03T01:45:18;1.9;;;1.3;;
68375;SDS011;55318;52.068;5.188;2023-04-03T01:46:54;2.0;;;0.8;;
68375;SDS011;55318;52.068;5.188;2023-04-03T01:48:31;1.11;;;0.9;;
68375;SDS011;55318;52.068;5.188;2023-04-03T01:51:45;4.91;;;0.9;;
68375;SDS011;55318;52.068;5.188;2023-04-03T01:53:21;1.5;;;0.9;;
68375;SDS011;55318;52.068;5.188;2023-04-03T01:54:58;1.2;;;0.6;;
68375;SDS011;55318;52.068;5.188;2023-04-03T01:58:10;1.3;;;0.8;;
68375;SDS011;55318;52.068;5.188;2023-04-03T01:59:46;0.5;;;0.5;;
68375;SDS011;55318;52.068;5.188;2023-04-03T02:01:23;0.9;;;0.9;;
68375;SDS011;55318;52.068;5.188;2023-04-03T02:03:01;1.0;;;0.6;;
68375;SDS011;55318;52.068;5.188;2023-04-03T02:06:15;0.7;;;0.6;;
68375;SDS011;55318;52.068;5.188;2023-04-03T02:07:51;3.0;;;0.7;;
68375;SDS011;55318;52.068;5.188;2023-04-03T02:09:27;1.5;;;0.7;;
68375;SDS011;55318;52.068;5.188;2023-04-03T02:12:40;1.8;;;0.8;;
68375;SDS011;55318;52.068;5.188;2023-04-03T02:14:16;1.11;;;0.8;;
68375;SDS011;55318;52.068;5.188;2023-04-03T02:15:52;2.21;;;1.3;;
68375;SDS011;55318;52.068;5.188;2023-04-03T02:19:04;0.6;;;0.6;;
68375;SDS011;55318;52.068;5.188;2023-04-03T02:20:41;1.8;;;1.11;;
68375;SDS011;55318;52.068;5.188;2023-04-03T02:22:17;1.11;;;0.7;;
68375;SDS011;55318;52.068;5.188;2023-04-03T02:23:53;2.1;;;0.8;;
68375;SDS011;55318;52.068;5.188;2023-04-03T02:27:07;3.1;;;1.0;;
68375;SDS011;55318;52.068;5.188;2023-04-03T02:28:44;3.1;;;1.2;;
68375;SDS011;55318;52.068;5.188;2023-04-03T02:30:20;1.2;;;0.9;;
68375;SDS011;55318;52.068;5.188;2023-04-03T02:33:32;1.0;;;0.8;;
68375;SDS011;55318;52.068;5.188;2023-04-03T02:35:10;1.5;;;1.0;;
68375;SDS011;55318;52.068;5.188;2023-04-03T02:36:47;1.3;;;0.8;;
68375;SDS011;55318;52.068;5.188;2023-04-03T02:40:00;1.4;;;0.9;;
68375;SDS011;55318;52.068;5.188;2023-04-03T02:41:36;2.5;;;1.11;;
68375;SDS011;55318;52.068;5.188;2023-04-03T02:43:13;1.11;;;0.7;;
68375;SDS011;55318;52.068;5.188;2023-04-03T02:44:49;2.0;;;0.8;;
68375;SDS011;55318;52.068;5.188;2023-04-03T02:48:01;2.8;;;1.3;;
68375;SDS011;55318;52.068;5.188;2023-04-03T02:49:37;1.8;;;0.9;;
68375;SDS011;55318;52.068;5.188;2023-04-03T02:51:13;1.2;;;0.8;;
68375;SDS011;55318;52.068;5.188;2023-04-03T02:54:26;2.1;;;1.3;;
68375;SDS011;55318;52.068;5.188;2023-04-03T02:56:02;2.9;;;1.4;;
68375;SDS011;55318;52.068;5.188;2023-04-03T02:57:38;2.6;;;1.2;;
68375;SDS011;55318;52.068;5.188;2023-04-03T03:00:52;2.1;;;0.9;;
68375;SDS011;55318;52.068;5.188;2023-04-03T03:02:28;1.11;;;1.0;;
68375;SDS011;55318;52.068;5.188;2023-04-03T03:04:04;2.31;;;0.8;;
68375;SDS011;55318;52.068;5.188;2023-04-03T03:07:16;3.6;;;1.0;;
68375;SDS011;55318;52.068;5.188;2023-04-03T03:08:53;1.5;;;0.7;;
68375;SDS011;55318;52.068;5.188;2023-04-03T03:10:29;4.2;;;0.8;;
68375;SDS011;55318;52.068;5.188;2023-04-03T03:12:05;3.1;;;1.0;;
68375;SDS011;55318;52.068;5.188;2023-04-03T03:15:17;1.4;;;0.7;;
68375;SDS011;55318;52.068;5.188;2023-04-03T03:16:54;1.6;;;0.8;;
68375;SDS011;55318;52.068;5.188;2023-04-03T03:18:30;1.0;;;0.6;;
68375;SDS011;55318;52.068;5.188;2023-04-03T03:21:43;1.3;;;0.9;;
68375;SDS011;55318;52.068;5.188;2023-04-03T03:23:22;2.7;;;1.6;;
68375;SDS011;55318;52.068;5.188;2023-04-03T03:25:00;1.7;;;0.9;;
68375;SDS011;55318;52.068;5.188;2023-04-03T03:26:37;3.1;;;1.0;;
68375;SDS011;55318;52.068;5.188;2023-04-03T03:29:49;1.9;;;0.9;;
68375;SDS011;55318;52.068;5.188;2023-04-03T03:31:25;2.8;;;0.9;;
68375;SDS011;55318;52.068;5.188;2023-04-03T03:33:02;5.3;;;1.11;;
68375;SDS011;55318;52.068;5.188;2023-04-03T03:36:15;2.7;;;1.5;;
68375;SDS011;55318;52.068;5.188;2023-04-03T03:37:51;1.7;;;1.2;;
68375;SDS011;55318;52.068;5.188;2023-04-03T03:39:27;3.6;;;1.0;;
68375;SDS011;55318;52.068;5.188;2023-04-03T03:42:40;2.4;;;0.7;;
68375;SDS011;55318;52.068;5.188;2023-04-03T03:44:16;1.11;;;0.8;;
68375;SDS011;55318;52.068;5.188;2023-04-03T03:45:52;1.3;;;1.11;;
68375;SDS011;55318;52.068;5.188;2023-04-03T03:49:06;2.6;;;1.11;;
68375;SDS011;55318;52.068;5.188;2023-04-03T03:50:42;1.6;;;1.11;;
68375;SDS011;55318;52.068;5.188;2023-04-03T03:52:18;2.4;;;1.0;;
68375;SDS011;55318;52.068;5.188;2023-04-03T03:53:54;1.6;;;0.9;;
68375;SDS011;55318;52.068;5.188;2023-04-03T03:57:08;1.3;;;1.0;;
68375;SDS011;55318;52.068;5.188;2023-04-03T03:58:44;1.5;;;1.11;;
68375;SDS011;55318;52.068;5.188;2023-04-03T04:00:20;3.6;;;1.0;;
68375;SDS011;55318;52.068;5.188;2023-04-03T04:03:33;1.0;;;0.9;;
68375;SDS011;55318;52.068;5.188;2023-04-03T04:05:09;0.8;;;0.7;;
68375;SDS011;55318;52.068;5.188;2023-04-03T04:06:45;3.2;;;1.7;;
68375;SDS011;55318;52.068;5.188;2023-04-03T04:09:57;5.0;;;1.3;;
68375;SDS011;55318;52.068;5.188;2023-04-03T04:11:34;1.8;;;0.8;;
68375;SDS011;55318;52.068;5.188;2023-04-03T04:13:10;1.6;;;1.0;;
68375;SDS011;55318;52.068;5.188;2023-04-03T04:14:46;2.0;;;1.0;;
68375;SDS011;55318;52.068;5.188;2023-04-03T04:17:58;3.5;;;1.3;;
68375;SDS011;55318;52.068;5.188;2023-04-03T04:19:35;1.6;;;1.0;;
68375;SDS011;55318;52.068;5.188;2023-04-03T04:21:11;2.4;;;1.0;;
68375;SDS011;55318;52.068;5.188;2023-04-03T04:24:23;1.9;;;1.2;;
68375;SDS011;55318;52.068;5.188;2023-04-03T04:25:59;1.9;;;1.11;;
68375;SDS011;55318;52.068;5.188;2023-04-03T04:27:36;2.4;;;1.3;;
68375;SDS011;55318;52.068;5.188;2023-04-03T04:30:49;5.0;;;0.9;;
68375;SDS011;55318;52.068;5.188;2023-04-03T04:32:25;4.1;;;1.0;;
68375;SDS011;55318;52.068;5.188;2023-04-03T04:34:01;1.4;;;0.8;;
68375;SDS011;55318;52.068;5.188;2023-04-03T04:37:14;1.5;;;0.9;;
68375;SDS011;55318;52.068;5.188;2023-04-03T04:38:50;1.3;;;0.8;;
68375;SDS011;55318;52.068;5.188;2023-04-03T04:40:27;2.8;;;1.3;;
68375;SDS011;55318;52.068;5.188;2023-04-03T04:42:03;1.5;;;1.0;;
68375;SDS011;55318;52.068;5.188;2023-04-03T04:45:16;2.0;;;1.11;;
68375;SDS011;55318;52.068;5.188;2023-04-03T04:46:52;3.1;;;1.0;;
68375;SDS011;55318;52.068;5.188;2023-04-03T04:48:28;1.9;;;1.11;;
68375;SDS011;55318;52.068;5.188;2023-04-03T04:51:42;2.8;;;1.2;;
68375;SDS011;55318;52.068;5.188;2023-04-03T04:53:18;3.0;;;1.2;;
68375;SDS011;55318;52.068;5.188;2023-04-03T04:54:54;1.8;;;1.0;;
68375;SDS011;55318;52.068;5.188;2023-04-03T04:58:06;2.8;;;1.11;;
68375;SDS011;55318;52.068;5.188;2023-04-03T04:59:43;3.9;;;1.5;;
68375;SDS011;55318;52.068;5.188;2023-04-03T05:01:19;1.3;;;1.11;;
68375;SDS011;55318;52.068;5.188;2023-04-03T05:02:55;2.7;;;1.3;;
68375;SDS011;55318;52.068;5.188;2023-04-03T05:06:08;2.5;;;0.9;;
68375;SDS011;55318;52.068;5.188;2023-04-03T05:07:44;1.4;;;1.2;;
68375;SDS011;55318;52.068;5.188;2023-04-03T05:09:20;4.41;;;1.5;;
68375;SDS011;55318;52.068;5.188;2023-04-03T05:12:32;1.0;;;0.9;;
68375;SDS011;55318;52.068;5.188;2023-04-03T05:14:09;2.1;;;1.5;;
68375;SDS011;55318;52.068;5.188;2023-04-03T05:15:45;2.8;;;1.3;;
68375;SDS011;55318;52.068;5.188;2023-04-03T05:18:58;3.6;;;1.2;;
68375;SDS011;55318;52.068;5.188;2023-04-03T05:20:34;2.5;;;1.4;;
68375;SDS011;55318;52.068;5.188;2023-04-03T05:22:11;3.3;;;1.7;;
68375;SDS011;55318;52.068;5.188;2023-04-03T05:23:47;1.11;;;1.0;;
68375;SDS011;55318;52.068;5.188;2023-04-03T05:26:59;1.7;;;1.11;;
68375;SDS011;55318;52.068;5.188;2023-04-03T05:28:35;4.8;;;1.0;;
68375;SDS011;55318;52.068;5.188;2023-04-03T05:30:12;1.7;;;1.4;;
68375;SDS011;55318;52.068;5.188;2023-04-03T05:33:26;3.5;;;1.4;;
68375;SDS011;55318;52.068;5.188;2023-04-03T05:35:02;1.3;;;0.9;;
68375;SDS011;55318;52.068;5.188;2023-04-03T05:36:39;0.8;;;0.8;;
68375;SDS011;55318;52.068;5.188;2023-04-03T05:39:52;3.9;;;1.2;;
68375;SDS011;55318;52.068;5.188;2023-04-03T05:41:28;2.1;;;1.4;;
68375;SDS011;55318;52.068;5.188;2023-04-03T05:43:04;2.21;;;1.3;;
68375;SDS011;55318;52.068;5.188;2023-04-03T05:44:40;0.9;;;0.8;;
68375;SDS011;55318;52.068;5.188;2023-04-03T05:47:55;3.3;;;1.7;;
68375;SDS011;55318;52.068;5.188;2023-04-03T05:49:31;2.31;;;1.6;;
68375;SDS011;55318;52.068;5.188;2023-04-03T05:51:09;2.31;;;1.6;;
68375;SDS011;55318;52.068;5.188;2023-04-03T05:54:31;3.7;;;1.5;;
68375;SDS011;55318;52.068;5.188;2023-04-03T05:56:07;2.21;;;1.2;;
68375;SDS011;55318;52.068;5.188;2023-04-03T05:57:43;3.3;;;1.6;;
68375;SDS011;55318;52.068;5.188;2023-04-03T05:59:19;3.2;;;1.4;;
68375;SDS011;55318;52.068;5.188;2023-04-03T06:02:33;1.7;;;1.11;;
68375;SDS011;55318;52.068;5.188;2023-04-03T06:04:09;2.6;;;1.0;;
68375;SDS011;55318;52.068;5.188;2023-04-03T06:05:46;1.8;;;1.5;;
68375;SDS011;55318;52.068;5.188;2023-04-03T06:09:00;6.1;;;1.6;;
68375;SDS011;55318;52.068;5.188;2023-04-03T06:10:36;4.1;;;1.4;;
68375;SDS011;55318;52.068;5.188;2023-04-03T06:12:13;2.8;;;1.2;;
68375;SDS011;55318;52.068;5.188;2023-04-03T06:15:26;1.11;;;0.9;;
68375;SDS011;55318;52.068;5.188;2023-04-03T06:17:02;2.4;;;1.11;;
68375;SDS011;55318;52.068;5.188;2023-04-03T06:18:39;4.0;;;0.9;;
68375;SDS011;55318;52.068;5.188;2023-04-03T06:25:13;1.6;;;1.0;;
68375;SDS011;55318;52.068;5.188;2023-04-03T06:26:49;2.6;;;1.4;;
68375;SDS011;55318;52.068;5.188;2023-04-03T06:30:01;2.6;;;1.3;;
68375;SDS011;55318;52.068;5.188;2023-04-03T06:31:38;3.6;;;1.11;;
68375;SDS011;55318;52.068;5.188;2023-04-03T06:33:14;1.5;;;1.0;;
68375;SDS011;55318;52.068;5.188;2023-04-03T06:36:26;2.4;;;1.5;;
68375;SDS011;55318;52.068;5.188;2023-04-03T06:38:02;4.3;;;1.3;;
68375;SDS011;55318;52.068;5.188;2023-04-03T06:39:38;4.0;;;1.0;;
68375;SDS011;55318;52.068;5.188;2023-04-03T06:41:15;2.1;;;1.0;;
68375;SDS011;55318;52.068;5.188;2023-04-03T06:44:28;2.0;;;1.3;;
68375;SDS011;55318;52.068;5.188;2023-04-03T06:46:04;2.0;;;1.11;;
68375;SDS011;55318;52.068;5.188;2023-04-03T06:47:40;6.4;;;1.11;;
68375;SDS011;55318;52.068;5.188;2023-04-03T06:50:53;1.0;;;0.7;;
68375;SDS011;55318;52.068;5.188;2023-04-03T06:52:29;5.7;;;0.9;;
68375;SDS011;55318;52.068;5.188;2023-04-03T06:54:05;3.0;;;1.3;;
68375;SDS011;55318;52.068;5.188;2023-04-03T06:57:18;2.21;;;1.6;;
68375;SDS011;55318;52.068;5.188;2023-04-03T06:58:54;2.6;;;1.2;;
68375;SDS011;55318;52.068;5.188;2023-04-03T07:00:31;3.0;;;1.0;;
68375;SDS011;55318;52.068;5.188;2023-04-03T07:02:08;1.4;;;1.0;;
68375;SDS011;55318;52.068;5.188;2023-04-03T07:05:24;2.1;;;1.11;;
68375;SDS011;55318;52.068;5.188;2023-04-03T07:07:01;2.31;;;1.0;;
68375;SDS011;55318;52.068;5.188;2023-04-03T07:08:37;3.2;;;1.7;;
68375;SDS011;55318;52.068;5.188;2023-04-03T07:11:50;3.1;;;1.11;;
68375;SDS011;55318;52.068;5.188;2023-04-03T07:13:26;1.9;;;0.6;;
68375;SDS011;55318;52.068;5.188;2023-04-03T07:15:03;3.0;;;1.11;;
68375;SDS011;55318;52.068;5.188;2023-04-03T07:18:16;1.8;;;1.11;;
68375;SDS011;55318;52.068;5.188;2023-04-03T07:19:52;3.5;;;1.4;;
68375;SDS011;55318;52.068;5.188;2023-04-03T07:21:29;3.2;;;0.9;;
68375;SDS011;55318;52.068;5.188;2023-04-03T07:23:05;2.4;;;1.6;;
68375;SDS011;55318;52.068;5.188;2023-04-03T07:26:18;1.2;;;1.11;;
68375;SDS011;55318;52.068;5.188;2023-04-03T07:27:54;1.4;;;0.9;;
68375;SDS011;55318;52.068;5.188;2023-04-03T07:29:31;3.2;;;1.4;;
68375;SDS011;55318;52.068;5.188;2023-04-03T07:32:47;1.0;;;0.7;;
68375;SDS011;55318;52.068;5.188;2023-04-03T07:34:23;3.5;;;1.2;;
68375;SDS011;55318;52.068;5.188;2023-04-03T07:35:59;2.9;;;1.3;;
68375;SDS011;55318;52.068;5.188;2023-04-03T07:39:13;2.4;;;0.8;;
68375;SDS011;55318;52.068;5.188;2023-04-03T07:40:49;2.0;;;1.11;;
68375;SDS011;55318;52.068;5.188;2023-04-03T07:42:26;1.0;;;0.7;;
68375;SDS011;55318;52.068;5.188;2023-04-03T07:44:02;1.6;;;1.4;;
68375;SDS011;55318;52.068;5.188;2023-04-03T07:47:18;3.3;;;1.2;;
68375;SDS011;55318;52.068;5.188;2023-04-03T07:48:54;3.5;;;0.7;;
68375;SDS011;55318;52.068;5.188;2023-04-03T07:50:30;2.1;;;1.11;;
68375;SDS011;55318;52.068;5.188;2023-04-03T07:53:43;2.6;;;0.9;;
68375;SDS011;55318;52.068;5.188;2023-04-03T07:55:19;4.2;;;1.11;;
68375;SDS011;55318;52.068;5.188;2023-04-03T07:56:55;0.7;;;0.7;;
68375;SDS011;55318;52.068;5.188;2023-04-03T08:00:07;1.9;;;1.11;;
68375;SDS011;55318;52.068;5.188;2023-04-03T08:01:44;1.8;;;0.9;;
68375;SDS011;55318;52.068;5.188;2023-04-03T08:03:20;1.7;;;0.9;;
68375;SDS011;55318;52.068;5.188;2023-04-03T08:04:56;1.9;;;0.9;;
68375;SDS011;55318;52.068;5.188;2023-04-03T08:08:10;1.6;;;0.9;;
68375;SDS011;55318;52.068;5.188;2023-04-03T08:09:47;1.9;;;0.8;;
68375;SDS011;55318;52.068;5.188;2023-04-03T08:11:23;2.8;;;0.9;;
68375;SDS011;55318;52.068;5.188;2023-04-03T08:14:36;2.6;;;0.9;;
68375;SDS011;55318;52.068;5.188;2023-04-03T08:16:14;1.8;;;0.6;;
68375;SDS011;55318;52.068;5.188;2023-04-03T08:17:54;1.5;;;0.8;;
68375;SDS011;55318;52.068;5.188;2023-04-03T08:19:30;1.4;;;0.9;;
68375;SDS011;55318;52.068;5.188;2023-04-03T08:22:44;2.31;;;0.8;;
68375;SDS011;55318;52.068;5.188;2023-04-03T08:24:20;2.0;;;1.0;;
68375;SDS011;55318;52.068;5.188;2023-04-03T08:25:56;2.7;;;1.11;;
68375;SDS011;55318;52.068;5.188;2023-04-03T08:29:09;0.9;;;0.6;;
68375;SDS011;55318;52.068;5.188;2023-04-03T08:30:45;2.31;;;0.8;;
68375;SDS011;55318;52.068;5.188;2023-04-03T08:32:22;3.3;;;1.11;;
68375;SDS011;55318;52.068;5.188;2023-04-03T08:35:37;1.2;;;0.6;;
68375;SDS011;55318;52.068;5.188;2023-04-03T08:37:14;1.6;;;1.11;;
68375;SDS011;55318;52.068;5.188;2023-04-03T08:38:50;1.5;;;0.7;;
68375;SDS011;55318;52.068;5.188;2023-04-03T08:40:28;1.4;;;0.9;;
68375;SDS011;55318;52.068;5.188;2023-04-03T08:43:56;2.0;;;0.7;;
68375;SDS011;55318;52.068;5.188;2023-04-03T08:45:42;5.2;;;1.0;;
68375;SDS011;55318;52.068;5.188;2023-04-03T08:47:22;2.6;;;0.5;;
68375;SDS011;55318;52.068;5.188;2023-04-03T08:49:04;2.7;;;1.0;;
68375;SDS011;55318;52.068;5.188;2023-04-03T08:52:32;0.9;;;0.7;;
68375;SDS011;55318;52.068;5.188;2023-04-03T08:54:14;0.6;;;0.5;;
68375;SDS011;55318;52.068;5.188;2023-04-03T08:56:00;1.0;;;0.5;;
68375;SDS011;55318;52.068;5.188;2023-04-03T08:57:44;2.0;;;0.8;;
68375;SDS011;55318;52.068;5.188;2023-04-03T08:59:24;1.4;;;0.6;;
68375;SDS011;55318;52.068;5.188;2023-04-03T09:02:53;1.4;;;0.6;;
68375;SDS011;55318;52.068;5.188;2023-04-03T09:04:31;1.4;;;0.5;;
68375;SDS011;55318;52.068;5.188;2023-04-03T09:06:10;0.5;;;0.5;;
68375;SDS011;55318;52.068;5.188;2023-04-03T09:07:52;0.5;;;0.5;;
68375;SDS011;55318;52.068;5.188;2023-04-03T09:11:19;1.6;;;0.6;;
68375;SDS011;55318;52.068;5.188;2023-04-03T09:13:01;1.8;;;0.6;;
68375;SDS011;55318;52.068;5.188;2023-04-03T09:14:45;0.9;;;0.6;;
68375;SDS011;55318;52.068;5.188;2023-04-03T09:16:36;1.11;;;0.5;;
68375;SDS011;55318;52.068;5.188;2023-04-03T09:18:24;1.0;;;0.5;;
68375;SDS011;55318;52.068;5.188;2023-04-03T09:21:56;1.2;;;0.8;;
68375;SDS011;55318;52.068;5.188;2023-04-03T09:23:33;0.8;;;0.6;;
68375;SDS011;55318;52.068;5.188;2023-04-03T09:25:18;1.3;;;0.8;;
68375;SDS011;55318;52.068;5.188;2023-04-03T09:26:58;1.3;;;0.5;;
68375;SDS011;55318;52.068;5.188;2023-04-03T09:28:39;1.2;;;0.4;;
68375;SDS011;55318;52.068;5.188;2023-04-03T09:31:58;2.0;;;0.4;;
68375;SDS011;55318;52.068;5.188;2023-04-03T09:33:36;2.31;;;0.4;;
68375;SDS011;55318;52.068;5.188;2023-04-03T09:35:17;0.5;;;0.5;;
68375;SDS011;55318;52.068;5.188;2023-04-03T09:36:57;0.6;;;0.4;;
68375;SDS011;55318;52.068;5.188;2023-04-03T09:40:27;0.8;;;0.5;;
68375;SDS011;55318;52.068;5.188;2023-04-03T09:42:21;0.7;;;0.4;;
68375;SDS011;55318;52.068;5.188;2023-04-03T09:43:59;0.7;;;0.7;;
68375;SDS011;55318;52.068;5.188;2023-04-03T09:45:35;1.3;;;0.6;;
68375;SDS011;55318;52.068;5.188;2023-04-03T09:49:01;0.5;;;0.5;;
68375;SDS011;55318;52.068;5.188;2023-04-03T09:50:52;0.5;;;0.5;;
68375;SDS011;55318;52.068;5.188;2023-04-03T09:52:33;1.8;;;0.3;;
68375;SDS011;55318;52.068;5.188;2023-04-03T09:54:25;0.5;;;0.5;;
68375;SDS011;55318;52.068;5.188;2023-04-03T09:56:18;0.7;;;0.7;;
68375;SDS011;55318;52.068;5.188;2023-04-03T09:57:59;0.6;;;0.1;;
68375;SDS011;55318;52.068;5.188;2023-04-03T10:01:22;1.0;;;0.2;;
68375;SDS011;55318;52.068;5.188;2023-04-03T10:03:03;0.4;;;0.3;;
68375;SDS011;55318;52.068;5.188;2023-04-03T10:04:41;0.7;;;0.3;;
68375;SDS011;55318;52.068;5.188;2023-04-03T10:06:21;0.9;;;0.4;;
68375;SDS011;55318;52.068;5.188;2023-04-03T10:09:59;1.0;;;0.3;;
68375;SDS011;55318;52.068;5.188;2023-04-03T10:11:38;1.2;;;0.4;;
68375;SDS011;55318;52.068;5.188;2023-04-03T10:13:33;1.2;;;0.4;;
68375;SDS011;55318;52.068;5.188;2023-04-03T10:15:11;0.7;;;0.4;;
68375;SDS011;55318;52.068;5.188;2023-04-03T10:16:50;0.6;;;0.2;;
68375;SDS011;55318;52.068;5.188;2023-04-03T10:20:26;7.1;;;0.4;;
68375;SDS011;55318;52.068;5.188;2023-04-03T10:22:13;0.7;;;0.4;;
68375;SDS011;55318;52.068;5.188;2023-04-03T10:23:57;0.2;;;0.2;;
68375;SDS011;55318;52.068;5.188;2023-04-03T10:25:45;0.4;;;0.3;;
68375;SDS011;55318;52.068;5.188;2023-04-03T10:27:35;0.2;;;0.2;;
68375;SDS011;55318;52.068;5.188;2023-04-03T10:29:22;1.5;;;0.5;;
68375;SDS011;55318;52.068;5.188;2023-04-03T10:33:01;0.7;;;0.4;;
68375;SDS011;55318;52.068;5.188;2023-04-03T10:34:53;1.0;;;0.3;;
68375;SDS011;55318;52.068;5.188;2023-04-03T10:36:38;2.21;;;0.4;;
68375;SDS011;55318;52.068;5.188;2023-04-03T10:38:23;0.5;;;0.3;;
68375;SDS011;55318;52.068;5.188;2023-04-03T10:40:15;0.9;;;0.3;;
68375;SDS011;55318;52.068;5.188;2023-04-03T10:42:05;0.5;;;0.3;;
68375;SDS011;55318;52.068;5.188;2023-04-03T10:43:53;0.3;;;0.3;;
68375;SDS011;55318;52.068;5.188;2023-04-03T10:47:34;0.4;;;0.2;;
68375;SDS011;55318;52.068;5.188;2023-04-03T10:49:23;0.1;;;0.1;;
68375;SDS011;55318;52.068;5.188;2023-04-03T10:51:13;3.6;;;0.2;;
68375;SDS011;55318;52.068;5.188;2023-04-03T10:53:01;0.5;;;0.2;;
68375;SDS011;55318;52.068;5.188;2023-04-03T10:54:45;0.2;;;0.2;;
68375;SDS011;55318;52.068;5.188;2023-04-03T10:56:31;0.2;;;0.1;;
68375;SDS011;55318;52.068;5.188;2023-04-03T11:01:41;0.4;;;0.4;;
68375;SDS011;55318;52.068;5.188;2023-04-03T11:03:24;1.11;;;0.3;;
68375;SDS011;55318;52.068;5.188;2023-04-03T11:05:07;0.8;;;0.2;;
68375;SDS011;55318;52.068;5.188;2023-04-03T11:06:56;0.2;;;0.2;;
68375;SDS011;55318;52.068;5.188;2023-04-03T11:10:21;0.6;;;0.1;;
68375;SDS011;55318;52.068;5.188;2023-04-03T11:12:02;0.5;;;0.2;;
68375;SDS011;55318;52.068;5.188;2023-04-03T11:13:49;0.3;;;0.3;;
68375;SDS011;55318;52.068;5.188;2023-04-03T11:15:30;0.2;;;0.2;;
68375;SDS011;55318;52.068;5.188;2023-04-03T11:19:01;0.1;;;0.1;;
68375;SDS011;55318;52.068;5.188;2023-04-03T11:20:46;0.8;;;0.1;;
68375;SDS011;55318;52.068;5.188;2023-04-03T11:22:38;0.2;;;0.2;;
68375;SDS011;55318;52.068;5.188;2023-04-03T11:24:20;0.2;;;0.2;;
68375;SDS011;55318;52.068;5.188;2023-04-03T11:26:04;1.9;;;0.4;;
68375;SDS011;55318;52.068;5.188;2023-04-03T11:27:48;0.9;;;0.2;;
68375;SDS011;55318;52.068;5.188;2023-04-03T11:31:21;0.6;;;0.2;;
68375;SDS011;55318;52.068;5.188;2023-04-03T11:33:13;1.7;;;0.4;;
68375;SDS011;55318;52.068;5.188;2023-04-03T11:35:12;0.8;;;0.2;;
68375;SDS011;55318;52.068;5.188;2023-04-03T11:36:51;0.5;;;0.5;;
68375;SDS011;55318;52.068;5.188;2023-04-03T11:38:31;0.5;;;0.5;;
68375;SDS011;55318;52.068;5.188;2023-04-03T11:42:17;0.2;;;0.2;;
68375;SDS011;55318;52.068;5.188;2023-04-03T11:44:05;1.0;;;0.2;;
68375;SDS011;55318;52.068;5.188;2023-04-03T11:46:09;0.5;;;0.5;;
68375;SDS011;55318;52.068;5.188;2023-04-03T11:47:46;0.6;;;0.4;;
68375;SDS011;55318;52.068;5.188;2023-04-03T11:49:59;0.3;;;0.2;;
68375;SDS011;55318;52.068;5.188;2023-04-03T11:51:39;0.7;;;0.3;;
68375;SDS011;55318;52.068;5.188;2023-04-03T11:55:45;1.4;;;0.6;;
68375;SDS011;55318;52.068;5.188;2023-04-03T11:58:12;0.5;;;0.4;;
68375;SDS011;55318;52.068;5.188;2023-04-03T11:59:51;0.3;;;0.3;;
68375;SDS011;55318;52.068;5.188;2023-04-03T12:01:43;0.6;;;0.3;;
68375;SDS011;55318;52.068;5.188;2023-04-03T12:04:22;0.4;;;0.2;;
68375;SDS011;55318;52.068;5.188;2023-04-03T12:06:47;0.5;;;0.4;;
68375;SDS011;55318;52.068;5.188;2023-04-03T12:08:46;0.4;;;0.2;;
68375;SDS011;55318;52.068;5.188;2023-04-03T12:10:26;0.5;;;0.4;;
68375;SDS011;55318;52.068;5.188;2023-04-03T12:12:21;1.9;;;0.3;;
68375;SDS011;55318;52.068;5.188;2023-04-03T12:14:04;0.3;;;0.3;;
68375;SDS011;55318;52.068;5.188;2023-04-03T12:17:29;0.4;;;0.4;;
68375;SDS011;55318;52.068;5.188;2023-04-03T12:19:25;1.5;;;0.5;;
68375;SDS011;55318;52.068;5.188;2023-04-03T12:21:10;0.2;;;0.2;;
68375;SDS011;55318;52.068;5.188;2023-04-03T12:23:06;0.3;;;0.3;;
68375;SDS011;55318;52.068;5.188;2023-04-03T12:24:43;0.9;;;0.2;;
68375;SDS011;55318;52.068;5.188;2023-04-03T12:26:22;0.3;;;0.3;;
68375;SDS011;55318;52.068;5.188;2023-04-03T12:29:43;0.9;;;0.4;;
68375;SDS011;55318;52.068;5.188;2023-04-03T12:31:31;2.4;;;0.4;;
68375;SDS011;55318;52.068;5.188;2023-04-03T12:33:23;0.8;;;0.5;;
68375;SDS011;55318;52.068;5.188;2023-04-03T12:35:16;0.9;;;0.3;;
68375;SDS011;55318;52.068;5.188;2023-04-03T12:37:01;1.9;;;0.6;;
68375;SDS011;55318;52.068;5.188;2023-04-03T12:40:42;0.4;;;0.4;;
68375;SDS011;55318;52.068;5.188;2023-04-03T12:42:32;0.5;;;0.3;;
68375;SDS011;55318;52.068;5.188;2023-04-03T12:44:26;2.1;;;0.3;;
68375;SDS011;55318;52.068;5.188;2023-04-03T12:46:17;0.5;;;0.3;;
68375;SDS011;55318;52.068;5.188;2023-04-03T12:47:55;0.3;;;0.3;;
68375;SDS011;55318;52.068;5.188;2023-04-03T12:49:35;1.6;;;0.4;;
68375;SDS011;55318;52.068;5.188;2023-04-03T12:52:56;2.4;;;0.4;;
68375;SDS011;55318;52.068;5.188;2023-04-03T12:54:36;0.6;;;0.4;;
68375;SDS011;55318;52.068;5.188;2023-04-03T12:56:19;0.2;;;0.2;;
68375;SDS011;55318;52.068;5.188;2023-04-03T12:57:57;0.8;;;0.5;;
68375;SDS011;55318;52.068;5.188;2023-04-03T12:59:49;1.8;;;0.7;;
68375;SDS011;55318;52.068;5.188;2023-04-03T13:04:40;1.7;;;0.5;;
68375;SDS011;55318;52.068;5.188;2023-04-03T13:06:17;1.6;;;0.3;;
68375;SDS011;55318;52.068;5.188;2023-04-03T13:09:37;1.8;;;0.5;;
68375;SDS011;55318;52.068;5.188;2023-04-03T13:11:13;1.5;;;0.3;;
68375;SDS011;55318;52.068;5.188;2023-04-03T13:12:51;0.5;;;0.5;;